createdAt,value
2023-05-09T00:00:11.069Z,22.18
2023-05-09T00:02:38.086Z,22.24
2023-05-09T00:05:04.986Z,22.25
2023-05-09T00:07:31.744Z,22.41
2023-05-09T00:09:58.594Z,22.50
2023-05-09T00:12:25.402Z,22.51
2023-05-09T00:14:54.221Z,22.61
2023-05-09T00:17:22.586Z,22.59
2023-05-09T00:19:49.631Z,22.71
2023-05-09T00:22:17.115Z,22.93
2023-05-09T00:24:44.048Z,21.43
2023-05-09T00:27:10.834Z,18.59
2023-05-09T00:29:37.630Z,18.40
2023-05-09T00:32:04.453Z,20.10
2023-05-09T00:34:31.284Z,20.83
2023-05-09T00:36:58.066Z,21.20
2023-05-09T00:39:24.870Z,21.43
2023-05-09T00:41:51.625Z,21.65
2023-05-09T00:44:18.384Z,21.84
2023-05-09T00:46:45.369Z,21.99
2023-05-09T00:49:12.422Z,22.04
2023-05-09T00:51:39.158Z,22.16
2023-05-09T00:54:08.471Z,22.21
2023-05-09T00:56:35.890Z,22.37
2023-05-09T00:59:02.791Z,22.43
2023-05-09T01:01:29.681Z,22.39
2023-05-09T01:03:56.424Z,22.53
2023-05-09T01:06:23.183Z,22.52
2023-05-09T01:08:49.962Z,22.65
2023-05-09T01:11:16.698Z,22.68
2023-05-09T01:13:43.472Z,22.78
2023-05-09T01:16:10.282Z,22.78
2023-05-09T01:18:37.071Z,21.66
2023-05-09T01:21:03.849Z,18.84
2023-05-09T01:23:30.631Z,18.24
2023-05-09T01:25:57.367Z,19.95
2023-05-09T01:28:24.094Z,20.77
2023-05-09T01:30:50.878Z,21.12
2023-05-09T01:33:17.936Z,21.46
2023-05-09T01:35:44.946Z,21.59
2023-05-09T01:38:11.898Z,21.78
2023-05-09T01:40:38.624Z,21.89
2023-05-09T01:43:05.363Z,22.00
2023-05-09T01:45:32.204Z,22.10
2023-05-09T01:47:59.029Z,22.19
2023-05-09T01:50:25.862Z,22.28
2023-05-09T01:52:52.684Z,22.38
2023-05-09T01:55:19.979Z,22.43
2023-05-09T01:57:46.721Z,22.49
2023-05-09T02:00:14.213Z,22.57
2023-05-09T02:02:41.155Z,22.56
2023-05-09T02:05:07.957Z,22.73
2023-05-09T02:07:34.736Z,22.46
2023-05-09T02:10:01.563Z,19.53
2023-05-09T02:12:28.424Z,18.47
2023-05-09T02:14:55.188Z,19.37
2023-05-09T02:17:21.936Z,20.47
2023-05-09T02:19:48.723Z,20.96
2023-05-09T02:22:15.680Z,21.32
2023-05-09T02:24:42.420Z,21.53
2023-05-09T02:27:09.223Z,21.66
2023-05-09T02:29:42.215Z,21.82
2023-05-09T02:32:09.613Z,22.00
2023-05-09T02:34:36.566Z,22.11
2023-05-09T02:37:03.341Z,22.12
2023-05-09T02:39:30.338Z,22.16
2023-05-09T02:41:57.091Z,22.18
2023-05-09T02:44:23.965Z,22.26
2023-05-09T02:46:50.717Z,22.44
2023-05-09T02:49:31.415Z,22.50
2023-05-09T02:51:58.671Z,22.60
2023-05-09T02:54:25.497Z,22.52
2023-05-09T02:56:52.671Z,22.60
2023-05-09T02:59:20.210Z,22.67
2023-05-09T03:01:47.146Z,22.82
2023-05-09T03:04:13.925Z,20.67
2023-05-09T03:06:41.029Z,18.68
2023-05-09T03:09:08.026Z,19.33
2023-05-09T03:11:36.495Z,20.74
2023-05-09T03:14:03.301Z,21.14
2023-05-09T03:16:30.213Z,21.50
2023-05-09T03:18:57.015Z,21.67
2023-05-09T03:21:23.778Z,21.89
2023-05-09T03:23:50.557Z,21.93
2023-05-09T03:26:17.307Z,22.10
2023-05-09T03:28:44.087Z,22.12
2023-05-09T03:31:10.868Z,22.28
2023-05-09T03:33:37.619Z,22.25
2023-05-09T03:36:05.181Z,22.39
2023-05-09T03:38:31.922Z,22.41
2023-05-09T03:40:58.760Z,22.56
2023-05-09T03:43:26.251Z,22.54
2023-05-09T03:45:53.013Z,22.62
2023-05-09T03:48:20.889Z,22.59
2023-05-09T03:50:47.650Z,22.73
2023-05-09T03:53:14.413Z,22.72
2023-05-09T03:55:41.167Z,22.27
2023-05-09T03:58:07.998Z,19.39
2023-05-09T04:00:34.791Z,18.92
2023-05-09T04:03:01.749Z,20.42
2023-05-09T04:05:28.897Z,21.14
2023-05-09T04:07:55.673Z,21.56
2023-05-09T04:10:22.576Z,21.67
2023-05-09T04:12:49.383Z,21.87
2023-05-09T04:15:16.297Z,22.02
2023-05-09T04:17:43.885Z,22.15
2023-05-09T04:20:10.841Z,22.19
2023-05-09T04:22:37.642Z,22.20
2023-05-09T04:25:04.558Z,22.35
2023-05-09T04:27:31.889Z,22.40
2023-05-09T04:29:58.642Z,22.52
2023-05-09T04:32:25.591Z,22.56
2023-05-09T04:34:52.378Z,22.60
2023-05-09T04:37:19.198Z,22.69
2023-05-09T04:39:45.990Z,22.69
2023-05-09T04:42:12.768Z,21.04
2023-05-09T04:44:39.523Z,18.92
2023-05-09T04:47:06.614Z,18.02
2023-05-09T04:49:33.369Z,19.85
2023-05-09T04:52:00.132Z,20.77
2023-05-09T04:54:26.956Z,21.28
2023-05-09T04:57:00.256Z,21.46
2023-05-09T04:59:33.390Z,21.67
2023-05-09T05:02:00.356Z,21.78
2023-05-09T05:04:28.036Z,21.86
2023-05-09T05:06:54.792Z,22.00
2023-05-09T05:09:21.638Z,22.07
2023-05-09T05:11:59.547Z,21.97
2023-05-09T05:14:28.726Z,22.15
2023-05-09T05:16:55.629Z,22.24
2023-05-09T05:19:22.372Z,22.32
2023-05-09T05:21:49.128Z,22.39
2023-05-09T05:24:15.887Z,22.41
2023-05-09T05:26:42.620Z,22.50
2023-05-09T05:29:09.444Z,22.44
2023-05-09T05:31:36.238Z,22.66
2023-05-09T05:34:03.152Z,22.70
2023-05-09T05:36:30.192Z,22.72
2023-05-09T05:38:56.951Z,22.38
2023-05-09T05:41:23.782Z,19.35
2023-05-09T05:43:52.852Z,18.44
2023-05-09T05:46:20.813Z,19.87
2023-05-09T05:48:47.567Z,20.80
2023-05-09T05:51:14.330Z,21.18
2023-05-09T05:53:41.189Z,21.49
2023-05-09T05:56:07.945Z,21.59
2023-05-09T05:58:34.737Z,21.76
2023-05-09T06:01:02.258Z,21.94
2023-05-09T06:03:29.131Z,22.00
2023-05-09T06:05:56.406Z,22.07
2023-05-09T06:08:23.176Z,22.14
2023-05-09T06:10:49.925Z,22.28
2023-05-09T06:13:16.828Z,22.36
2023-05-09T06:15:43.781Z,22.47
2023-05-09T06:18:10.694Z,22.45
2023-05-09T06:20:37.624Z,22.58
2023-05-09T06:23:04.405Z,22.57
2023-05-09T06:25:31.197Z,22.64
2023-05-09T06:27:58.028Z,22.64
2023-05-09T06:30:26.727Z,22.75
2023-05-09T06:32:53.972Z,20.56
2023-05-09T06:35:20.809Z,19.95
2023-05-09T06:37:48.772Z,20.43
2023-05-09T06:40:15.698Z,21.31
2023-05-09T06:42:42.485Z,21.76
2023-05-09T06:45:09.299Z,21.85
2023-05-09T06:47:36.237Z,22.02
2023-05-09T06:50:03.191Z,22.11
2023-05-09T06:52:30.005Z,22.20
2023-05-09T06:54:56.750Z,22.29
2023-05-09T06:57:23.615Z,22.47
2023-05-09T06:59:50.574Z,22.50
2023-05-09T07:02:17.316Z,22.58
2023-05-09T07:04:44.140Z,22.64
2023-05-09T07:07:11.109Z,22.74
2023-05-09T07:09:37.888Z,22.80
2023-05-09T07:12:04.649Z,20.12
2023-05-09T07:14:31.415Z,19.60
2023-05-09T07:17:13.867Z,20.39
2023-05-09T07:19:44.979Z,21.24
2023-05-09T07:22:13.418Z,21.58
2023-05-09T07:24:40.356Z,21.92
2023-05-09T07:27:07.136Z,21.92
2023-05-09T07:29:33.960Z,22.08
2023-05-09T07:32:00.781Z,22.15
2023-05-09T07:34:27.637Z,22.38
2023-05-09T07:36:54.480Z,22.36
2023-05-09T07:39:21.228Z,22.53
2023-05-09T07:41:48.782Z,22.51
2023-05-09T07:44:15.812Z,22.58
2023-05-09T07:46:42.645Z,22.20
2023-05-09T07:49:09.460Z,19.98
2023-05-09T07:51:36.261Z,19.69
2023-05-09T07:54:03.047Z,20.79
2023-05-09T07:56:29.826Z,21.30
2023-05-09T07:58:56.658Z,21.74
2023-05-09T08:01:23.451Z,21.80
2023-05-09T08:03:50.321Z,22.03
2023-05-09T08:06:17.144Z,22.13
2023-05-09T08:08:43.902Z,22.15
2023-05-09T08:11:10.687Z,22.29
2023-05-09T08:13:37.481Z,22.50
2023-05-09T08:16:04.329Z,22.48
2023-05-09T08:18:31.270Z,22.65
2023-05-09T08:20:59.473Z,22.69
2023-05-09T08:23:26.611Z,22.71
2023-05-09T08:25:53.657Z,21.59
2023-05-09T08:28:21.897Z,19.95
2023-05-09T08:30:48.701Z,19.74
2023-05-09T08:33:15.481Z,21.02
2023-05-09T08:35:42.273Z,21.49
2023-05-09T08:38:09.071Z,21.79
2023-05-09T08:40:35.876Z,21.98
2023-05-09T08:43:02.629Z,22.19
2023-05-09T08:45:29.454Z,22.18
2023-05-09T08:47:56.259Z,22.17
2023-05-09T08:50:23.067Z,22.38
2023-05-09T08:52:49.822Z,22.48
2023-05-09T08:55:16.585Z,22.58
2023-05-09T08:57:43.337Z,22.62
2023-05-09T09:00:11.211Z,22.73
2023-05-09T09:02:38.018Z,22.08
2023-05-09T09:05:05.203Z,20.42
2023-05-09T09:07:32.672Z,20.11
2023-05-09T09:09:59.462Z,21.16
2023-05-09T09:12:26.243Z,21.63
2023-05-09T09:14:53.014Z,21.88
2023-05-09T09:17:19.918Z,22.10
2023-05-09T09:19:46.711Z,22.26
2023-05-09T09:22:13.468Z,22.31
2023-05-09T09:24:40.410Z,22.39
2023-05-09T09:27:07.195Z,22.58
2023-05-09T09:29:34.040Z,22.62
2023-05-09T09:32:00.927Z,22.75
2023-05-09T09:34:27.737Z,22.77
2023-05-09T09:36:54.624Z,20.38
2023-05-09T09:39:21.979Z,19.70
2023-05-09T09:41:48.790Z,20.15
2023-05-09T09:44:15.624Z,21.18
2023-05-09T09:46:42.673Z,21.69
2023-05-09T09:49:09.439Z,21.85
2023-05-09T09:51:36.174Z,21.99
2023-05-09T09:54:03.158Z,22.21
2023-05-09T09:56:29.977Z,22.20
2023-05-09T09:58:56.711Z,22.35
2023-05-09T10:01:24.511Z,22.29
2023-05-09T10:03:51.329Z,22.46
2023-05-09T10:06:18.136Z,22.54
2023-05-09T10:08:47.097Z,22.69
2023-05-09T10:11:14.046Z,22.73
2023-05-09T10:13:41.242Z,20.73
2023-05-09T10:16:08.100Z,19.71
2023-05-09T10:18:35.092Z,20.08
2023-05-09T10:21:03.741Z,21.29
2023-05-09T10:23:31.128Z,21.73
2023-05-09T10:25:57.919Z,21.88
2023-05-09T10:28:25.081Z,22.02
2023-05-09T10:30:51.832Z,22.23
2023-05-09T10:33:18.667Z,22.37
2023-05-09T10:35:45.690Z,22.42
2023-05-09T10:38:12.548Z,22.53
2023-05-09T10:40:39.286Z,22.48
2023-05-09T10:43:07.094Z,22.52
2023-05-09T10:45:33.864Z,22.75
2023-05-09T10:48:01.562Z,22.58
2023-05-09T10:50:28.359Z,20.13
2023-05-09T10:52:55.138Z,19.64
2023-05-09T10:55:22.427Z,20.62
2023-05-09T10:57:49.392Z,21.45
2023-05-09T11:00:16.598Z,21.70
2023-05-09T11:02:43.483Z,21.90
2023-05-09T11:05:10.456Z,22.09
2023-05-09T11:07:37.285Z,22.21
2023-05-09T11:10:04.147Z,22.35
2023-05-09T11:12:31.526Z,22.42
2023-05-09T11:14:58.506Z,22.40
2023-05-09T11:17:25.335Z,22.67
2023-05-09T11:19:52.541Z,22.61
2023-05-09T11:22:19.511Z,22.46
2023-05-09T11:24:46.982Z,20.34
2023-05-09T11:27:13.741Z,19.75
2023-05-09T11:29:40.577Z,20.96
2023-05-09T11:32:10.318Z,21.72
2023-05-09T11:34:37.192Z,21.85
2023-05-09T11:37:03.959Z,22.13
2023-05-09T11:39:30.822Z,22.22
2023-05-09T11:41:57.600Z,22.26
2023-05-09T11:44:24.357Z,22.40
2023-05-09T11:46:51.162Z,22.47
2023-05-09T11:49:19.476Z,22.57
2023-05-09T11:51:46.323Z,22.64
2023-05-09T11:54:14.735Z,22.72
2023-05-09T11:56:41.916Z,20.52
2023-05-09T11:59:10.374Z,19.82
2023-05-09T12:01:37.164Z,20.35
2023-05-09T12:04:04.056Z,21.56
2023-05-09T12:06:30.959Z,21.88
2023-05-09T12:08:58.050Z,22.13
2023-05-09T12:11:24.834Z,22.14
2023-05-09T12:13:52.246Z,22.29
2023-05-09T12:16:19.149Z,22.49
2023-05-09T12:18:46.055Z,22.37
2023-05-09T12:21:12.834Z,22.52
2023-05-09T12:23:39.583Z,22.68
2023-05-09T12:26:06.786Z,22.75
2023-05-09T12:28:33.552Z,21.50
2023-05-09T12:31:00.428Z,19.89
2023-05-09T12:33:27.238Z,19.72
2023-05-09T12:35:54.664Z,21.12
2023-05-09T12:38:21.493Z,21.75
2023-05-09T12:40:48.542Z,21.98
2023-05-09T12:43:15.317Z,22.03
2023-05-09T12:45:42.199Z,22.27
2023-05-09T12:48:09.436Z,22.40
2023-05-09T12:50:36.420Z,22.30
2023-05-09T12:53:04.440Z,22.44
2023-05-09T12:55:32.600Z,22.60
2023-05-09T12:57:59.453Z,22.58
2023-05-09T13:00:26.257Z,22.62
2023-05-09T13:02:53.187Z,20.28
2023-05-09T13:05:20.031Z,19.57
2023-05-09T13:07:46.826Z,20.61
2023-05-09T13:10:13.635Z,21.59
2023-05-09T13:12:44.290Z,21.98
2023-05-09T13:15:11.307Z,21.95
2023-05-09T13:17:38.114Z,22.09
2023-05-09T13:20:05.526Z,22.24
2023-05-09T13:22:32.299Z,22.44
2023-05-09T13:24:59.150Z,22.54
2023-05-09T13:27:27.734Z,22.69
2023-05-09T13:29:54.463Z,22.62
2023-05-09T13:32:21.417Z,22.51
2023-05-09T13:34:48.230Z,20.12
2023-05-09T13:37:15.010Z,19.47
2023-05-09T13:39:41.762Z,20.58
2023-05-09T13:42:08.529Z,21.55
2023-05-09T13:44:35.511Z,21.89
2023-05-09T13:47:02.672Z,22.00
2023-05-09T13:49:29.484Z,22.15
2023-05-09T13:51:56.214Z,22.26
2023-05-09T13:54:23.085Z,22.34
2023-05-09T13:56:51.141Z,22.44
2023-05-09T13:59:17.916Z,22.54
2023-05-09T14:01:44.721Z,22.65
2023-05-09T14:04:11.610Z,22.61
2023-05-09T14:06:38.552Z,22.51
2023-05-09T14:09:05.426Z,20.14
2023-05-09T14:11:32.311Z,19.57
2023-05-09T14:13:59.081Z,20.67
2023-05-09T14:16:26.053Z,21.54
2023-05-09T14:18:52.868Z,21.82
2023-05-09T14:21:19.604Z,21.98
2023-05-09T14:23:46.465Z,22.16
2023-05-09T14:26:13.586Z,22.26
2023-05-09T14:28:40.392Z,22.40
2023-05-09T14:31:07.308Z,22.49
2023-05-09T14:33:35.965Z,22.58
2023-05-09T14:36:02.982Z,22.59
2023-05-09T14:38:29.888Z,22.67
2023-05-09T14:40:56.840Z,20.97
2023-05-09T14:43:24.202Z,19.69
2023-05-09T14:45:50.957Z,19.66
2023-05-09T14:48:17.759Z,21.16
2023-05-09T14:50:44.666Z,21.71
2023-05-09T14:53:11.485Z,21.98
2023-05-09T14:55:38.273Z,22.08
2023-05-09T14:58:05.136Z,22.22
2023-05-09T15:00:32.823Z,22.34
2023-05-09T15:02:59.688Z,22.40
2023-05-09T15:05:26.431Z,22.45
2023-05-09T15:07:53.518Z,22.56
2023-05-09T15:10:20.610Z,22.65
2023-05-09T15:12:47.374Z,22.63
2023-05-09T15:15:14.190Z,20.21
2023-05-09T15:17:41.021Z,19.61
2023-05-09T15:20:07.775Z,20.29
2023-05-09T15:22:34.608Z,21.36
2023-05-09T15:25:02.453Z,21.84
2023-05-09T15:27:31.008Z,21.95
2023-05-09T15:29:57.774Z,22.06
2023-05-09T15:32:24.625Z,22.12
2023-05-09T15:34:51.458Z,22.32
2023-05-09T15:37:18.333Z,22.35
2023-05-09T15:39:45.568Z,22.59
2023-05-09T15:42:12.414Z,22.52
2023-05-09T15:44:39.198Z,22.62
2023-05-09T15:47:05.989Z,21.37
2023-05-09T15:49:32.906Z,19.56
2023-05-09T15:51:59.652Z,19.41
2023-05-09T15:54:27.059Z,20.96
2023-05-09T15:56:53.803Z,21.57
2023-05-09T15:59:21.000Z,21.86
2023-05-09T16:01:47.807Z,22.04
2023-05-09T16:04:14.648Z,22.18
2023-05-09T16:06:41.822Z,22.27
2023-05-09T16:09:09.308Z,22.29
2023-05-09T16:11:36.139Z,22.40
2023-05-09T16:14:04.930Z,22.47
2023-05-09T16:16:31.858Z,22.58
2023-05-09T16:18:58.618Z,22.76
2023-05-09T16:21:28.960Z,22.01
2023-05-09T16:23:57.823Z,20.02
2023-05-09T16:26:24.613Z,19.58
2023-05-09T16:28:51.389Z,20.91
2023-05-09T16:31:18.175Z,21.57
2023-05-09T16:33:46.850Z,21.80
2023-05-09T16:36:13.591Z,21.97
2023-05-09T16:38:40.419Z,22.12
2023-05-09T16:41:07.165Z,22.24
2023-05-09T16:43:33.895Z,22.31
2023-05-09T16:46:00.761Z,22.40
2023-05-09T16:48:27.543Z,22.69
2023-05-09T16:50:54.345Z,22.64
2023-05-09T16:53:22.730Z,22.69
2023-05-09T16:55:49.581Z,21.18
2023-05-09T16:58:16.430Z,19.69
2023-05-09T17:00:43.371Z,19.85
2023-05-09T17:03:10.306Z,21.11
2023-05-09T17:05:37.107Z,21.68
2023-05-09T17:08:03.892Z,21.93
2023-05-09T17:10:30.650Z,22.01
2023-05-09T17:12:58.146Z,22.25
2023-05-09T17:15:24.952Z,22.29
2023-05-09T17:17:51.718Z,22.33
2023-05-09T17:20:18.684Z,22.54
2023-05-09T17:22:45.484Z,22.64
2023-05-09T17:25:12.365Z,22.50
2023-05-09T17:27:41.360Z,19.84
2023-05-09T17:30:08.156Z,19.46
2023-05-09T17:32:34.986Z,20.58
2023-05-09T17:35:01.864Z,21.41
2023-05-09T17:37:28.646Z,21.68
2023-05-09T17:39:55.445Z,21.90
2023-05-09T17:42:22.175Z,22.04
2023-05-09T17:44:50.284Z,22.23
2023-05-09T17:47:17.014Z,22.30
2023-05-09T17:49:43.763Z,22.55
2023-05-09T17:52:10.575Z,22.59
2023-05-09T17:54:37.511Z,22.64
2023-05-09T17:57:04.279Z,22.60
2023-05-09T17:59:31.079Z,22.58
2023-05-09T18:01:57.900Z,20.16
2023-05-09T18:04:25.672Z,19.60
2023-05-09T18:06:52.471Z,20.63
2023-05-09T18:09:19.435Z,21.39
2023-05-09T18:11:46.297Z,21.72
2023-05-09T18:14:13.168Z,21.94
2023-05-09T18:16:40.009Z,22.09
2023-05-09T18:19:07.025Z,22.17
2023-05-09T18:21:33.813Z,22.38
2023-05-09T18:24:01.373Z,22.41
2023-05-09T18:26:28.636Z,22.49
2023-05-09T18:28:55.422Z,22.50
2023-05-09T18:31:22.337Z,22.67
2023-05-09T18:33:49.247Z,21.01
2023-05-09T18:36:16.041Z,19.78
2023-05-09T18:38:43.452Z,19.90
2023-05-09T18:41:10.356Z,21.21
2023-05-09T18:43:38.823Z,21.64
2023-05-09T18:46:05.733Z,21.86
2023-05-09T18:48:32.779Z,22.08
2023-05-09T18:50:59.544Z,22.24
2023-05-09T18:53:26.288Z,22.37
2023-05-09T18:55:53.091Z,22.44
2023-05-09T18:58:21.188Z,22.50
2023-05-09T19:00:48.005Z,22.69
2023-05-09T19:03:14.810Z,22.60
2023-05-09T19:05:42.780Z,22.22
2023-05-09T19:08:09.568Z,20.00
2023-05-09T19:10:37.715Z,19.66
2023-05-09T19:13:04.577Z,20.79
2023-05-09T19:15:31.515Z,21.40
2023-05-09T19:17:58.498Z,21.75
2023-05-09T19:20:25.751Z,21.97
2023-05-09T19:22:52.496Z,22.06
2023-05-09T19:25:19.240Z,22.13
2023-05-09T19:27:46.013Z,22.32
2023-05-09T19:30:15.150Z,22.45
2023-05-09T19:32:42.222Z,22.51
2023-05-09T19:35:09.018Z,22.58
2023-05-09T19:37:36.104Z,21.29
2023-05-09T19:40:05.411Z,19.36
2023-05-09T19:42:32.582Z,19.52
2023-05-09T19:44:59.569Z,20.82
2023-05-09T19:47:26.406Z,21.36
2023-05-09T19:49:53.813Z,21.64
2023-05-09T19:52:20.784Z,21.95
2023-05-09T19:54:49.031Z,22.03
2023-05-09T19:57:15.824Z,22.08
2023-05-09T19:59:42.552Z,22.30
2023-05-09T20:02:09.741Z,22.30
2023-05-09T20:04:36.534Z,22.52
2023-05-09T20:07:03.339Z,22.50
2023-05-09T20:09:32.027Z,22.64
2023-05-09T20:11:58.791Z,22.77
2023-05-09T20:14:25.940Z,20.30
2023-05-09T20:16:52.723Z,19.29
2023-05-09T20:19:19.967Z,20.06
2023-05-09T20:21:46.729Z,21.04
2023-05-09T20:24:13.535Z,21.51
2023-05-09T20:26:40.384Z,21.77
2023-05-09T20:29:07.361Z,21.95
2023-05-09T20:31:34.143Z,22.04
2023-05-09T20:34:01.636Z,22.17
2023-05-09T20:36:28.503Z,22.36
2023-05-09T20:38:55.777Z,22.41
2023-05-09T20:41:23.504Z,22.44
2023-05-09T20:43:50.294Z,22.60
2023-05-09T20:46:17.380Z,22.65
2023-05-09T20:48:44.314Z,21.09
2023-05-09T20:51:11.066Z,19.59
2023-05-09T20:53:37.845Z,19.65
2023-05-09T20:56:04.596Z,20.91
2023-05-09T20:58:31.343Z,21.41
2023-05-09T21:00:58.198Z,21.70
2023-05-09T21:03:24.999Z,21.98
2023-05-09T21:05:51.793Z,22.00
2023-05-09T21:08:19.125Z,22.19
2023-05-09T21:10:45.951Z,22.25
2023-05-09T21:13:12.747Z,22.37
2023-05-09T21:15:39.544Z,22.49
2023-05-09T21:18:06.352Z,22.51
2023-05-09T21:20:33.140Z,22.61
2023-05-09T21:22:59.970Z,22.75
2023-05-09T21:25:26.715Z,22.62
2023-05-09T21:27:53.458Z,19.70
2023-05-09T21:30:20.230Z,18.95
2023-05-09T21:32:47.041Z,20.40
2023-05-09T21:35:15.353Z,21.08
2023-05-09T21:37:42.114Z,21.60
2023-05-09T21:40:08.859Z,21.79
2023-05-09T21:42:40.593Z,21.92
2023-05-09T21:45:07.337Z,22.08
2023-05-09T21:47:34.325Z,22.15
2023-05-09T21:50:01.150Z,22.20
2023-05-09T21:52:27.898Z,22.48
2023-05-09T21:54:54.679Z,22.51
2023-05-09T21:57:21.438Z,22.57
2023-05-09T21:59:48.231Z,22.73
2023-05-09T22:02:15.152Z,22.68
2023-05-09T22:04:42.054Z,22.10
2023-05-09T22:07:08.810Z,19.18
2023-05-09T22:09:35.610Z,18.14
2023-05-09T22:12:02.352Z,19.92
2023-05-09T22:14:29.093Z,20.77
2023-05-09T22:16:55.853Z,21.18
2023-05-09T22:19:22.613Z,21.41
2023-05-09T22:21:49.563Z,21.66
2023-05-09T22:24:16.369Z,21.78
2023-05-09T22:26:43.167Z,21.99
2023-05-09T22:29:09.922Z,22.07
2023-05-09T22:31:36.882Z,22.15
2023-05-09T22:34:03.795Z,22.23
2023-05-09T22:36:30.551Z,22.32
2023-05-09T22:38:57.304Z,22.36
2023-05-09T22:41:24.036Z,22.43
2023-05-09T22:43:50.852Z,22.59
2023-05-09T22:46:17.643Z,22.59
2023-05-09T22:48:44.482Z,22.71
2023-05-09T22:51:11.389Z,22.21
2023-05-09T22:53:38.157Z,19.47
2023-05-09T22:56:04.950Z,18.40
2023-05-09T22:58:31.807Z,19.90
2023-05-09T23:00:58.648Z,20.84
2023-05-09T23:03:25.635Z,21.27
2023-05-09T23:05:52.452Z,21.49
2023-05-09T23:08:19.238Z,21.72
2023-05-09T23:10:46.159Z,21.81
2023-05-09T23:13:12.939Z,22.16
2023-05-09T23:15:39.768Z,22.09
2023-05-09T23:18:06.948Z,22.21
2023-05-09T23:20:33.720Z,22.33
2023-05-09T23:23:01.145Z,22.33
2023-05-09T23:25:27.884Z,22.47
2023-05-09T23:27:54.805Z,22.52
2023-05-09T23:30:21.607Z,22.61
2023-05-09T23:32:48.407Z,22.65
2023-05-09T23:35:15.482Z,22.24
2023-05-09T23:37:42.765Z,19.39
2023-05-09T23:40:09.530Z,17.59
2023-05-09T23:42:36.353Z,19.01
2023-05-09T23:45:03.312Z,20.33
2023-05-09T23:47:30.321Z,20.91
2023-05-09T23:49:57.150Z,21.27
2023-05-09T23:52:23.929Z,21.49
2023-05-09T23:54:50.759Z,21.66
2023-05-09T23:57:17.505Z,21.76
2023-05-09T23:59:44.714Z,21.89
